sensor_id;sensor_type;location;lat;lon;timestamp;temperature;humidity
18950;DHT22;9608;49.288;8.130;2022-10-22T00:01:32;15.60;99.90
18950;DHT22;9608;49.288;8.130;2022-10-22T00:04:00;15.50;99.90
18950;DHT22;9608;49.288;8.130;2022-10-22T00:06:27;15.50;99.90
18950;DHT22;9608;49.288;8.130;2022-10-22T00:08:53;15.50;99.90
18950;DHT22;9608;49.288;8.130;2022-10-22T00:11:20;15.40;99.90
18950;DHT22;9608;49.288;8.130;2022-10-22T00:13:47;15.40;99.90
18950;DHT22;9608;49.288;8.130;2022-10-22T00:16:14;15.50;99.90
18950;DHT22;9608;49.288;8.130;2022-10-22T00:18:41;15.60;99.90
18950;DHT22;9608;49.288;8.130;2022-10-22T00:21:09;15.60;99.90
18950;DHT22;9608;49.288;8.130;2022-10-22T00:23:39;15.60;99.90
18950;DHT22;9608;49.288;8.130;2022-10-22T00:26:05;15.70;99.90
18950;DHT22;9608;49.288;8.130;2022-10-22T00:28:32;15.60;99.90
18950;DHT22;9608;49.288;8.130;2022-10-22T00:31:00;15.50;99.90
18950;DHT22;9608;49.288;8.130;2022-10-22T00:33:27;15.50;99.90
18950;DHT22;9608;49.288;8.130;2022-10-22T00:35:54;15.50;99.90
18950;DHT22;9608;49.288;8.130;2022-10-22T00:38:22;15.50;99.90
18950;DHT22;9608;49.288;8.130;2022-10-22T00:40:49;15.50;99.90
18950;DHT22;9608;49.288;8.130;2022-10-22T00:43:18;15.40;99.90
18950;DHT22;9608;49.288;8.130;2022-10-22T00:45:45;15.40;99.90
18950;DHT22;9608;49.288;8.130;2022-10-22T00:48:14;15.40;99.90
18950;DHT22;9608;49.288;8.130;2022-10-22T00:50:45;15.40;99.90
18950;DHT22;9608;49.288;8.130;2022-10-22T00:53:15;15.30;99.90
18950;DHT22;9608;49.288;8.130;2022-10-22T00:55:46;15.30;99.90
18950;DHT22;9608;49.288;8.130;2022-10-22T00:58:15;15.20;99.90
18950;DHT22;9608;49.288;8.130;2022-10-22T01:00:42;15.20;99.90
18950;DHT22;9608;49.288;8.130;2022-10-22T01:03:08;15.10;99.90
18950;DHT22;9608;49.288;8.130;2022-10-22T01:05:40;15.10;99.90
18950;DHT22;9608;49.288;8.130;2022-10-22T01:08:13;15.10;99.90
18950;DHT22;9608;49.288;8.130;2022-10-22T01:10:51;15.00;99.90
18950;DHT22;9608;49.288;8.130;2022-10-22T01:13:28;15.00;99.90
18950;DHT22;9608;49.288;8.130;2022-10-22T01:16:01;15.00;99.90
18950;DHT22;9608;49.288;8.130;2022-10-22T01:18:34;15.00;99.90
18950;DHT22;9608;49.288;8.130;2022-10-22T01:21:09;15.00;99.90
18950;DHT22;9608;49.288;8.130;2022-10-22T01:26:56;15.20;99.90
18950;DHT22;9608;49.288;8.130;2022-10-22T01:29:29;15.20;99.90
18950;DHT22;9608;49.288;8.130;2022-10-22T01:32:00;15.20;99.90
18950;DHT22;9608;49.288;8.130;2022-10-22T01:34:28;15.10;99.90
18950;DHT22;9608;49.288;8.130;2022-10-22T01:36:56;15.20;99.90
18950;DHT22;9608;49.288;8.130;2022-10-22T01:39:26;15.10;99.90
18950;DHT22;9608;49.288;8.130;2022-10-22T01:41:54;15.10;99.90
18950;DHT22;9608;49.288;8.130;2022-10-22T01:44:23;15.10;99.90
18950;DHT22;9608;49.288;8.130;2022-10-22T01:46:59;15.10;99.90
18950;DHT22;9608;49.288;8.130;2022-10-22T01:49:34;15.00;99.90
18950;DHT22;9608;49.288;8.130;2022-10-22T01:52:13;15.10;99.90
18950;DHT22;9608;49.288;8.130;2022-10-22T01:54:45;15.30;99.90
18950;DHT22;9608;49.288;8.130;2022-10-22T01:57:20;15.40;99.90
18950;DHT22;9608;49.288;8.130;2022-10-22T01:59:53;15.40;99.90
18950;DHT22;9608;49.288;8.130;2022-10-22T02:02:31;15.40;99.90
18950;DHT22;9608;49.288;8.130;2022-10-22T02:05:03;15.40;99.90
18950;DHT22;9608;49.288;8.130;2022-10-22T02:07:33;15.20;99.90
18950;DHT22;9608;49.288;8.130;2022-10-22T02:10:02;15.00;99.90
18950;DHT22;9608;49.288;8.130;2022-10-22T02:12:33;14.80;99.90
18950;DHT22;9608;49.288;8.130;2022-10-22T02:15:02;14.70;99.90
18950;DHT22;9608;49.288;8.130;2022-10-22T02:17:33;14.70;99.90
18950;DHT22;9608;49.288;8.130;2022-10-22T02:20:05;14.70;99.90
18950;DHT22;9608;49.288;8.130;2022-10-22T02:22:32;14.70;99.90
18950;DHT22;9608;49.288;8.130;2022-10-22T02:25:01;14.70;99.90
18950;DHT22;9608;49.288;8.130;2022-10-22T02:27:29;14.70;99.90
18950;DHT22;9608;49.288;8.130;2022-10-22T02:30:00;14.70;99.90
18950;DHT22;9608;49.288;8.130;2022-10-22T02:32:33;14.80;99.90
18950;DHT22;9608;49.288;8.130;2022-10-22T02:35:03;14.80;99.90
18950;DHT22;9608;49.288;8.130;2022-10-22T02:37:31;14.80;99.90
18950;DHT22;9608;49.288;8.130;2022-10-22T02:39:58;15.00;99.90
18950;DHT22;9608;49.288;8.130;2022-10-22T02:42:25;15.10;99.90
18950;DHT22;9608;49.288;8.130;2022-10-22T02:44:52;15.10;99.90
18950;DHT22;9608;49.288;8.130;2022-10-22T02:47:18;15.00;99.90
18950;DHT22;9608;49.288;8.130;2022-10-22T02:49:47;14.90;99.90
18950;DHT22;9608;49.288;8.130;2022-10-22T02:52:13;14.80;99.90
18950;DHT22;9608;49.288;8.130;2022-10-22T02:54:40;14.80;99.90
18950;DHT22;9608;49.288;8.130;2022-10-22T02:57:07;14.80;99.90
18950;DHT22;9608;49.288;8.130;2022-10-22T02:59:33;14.90;99.90
18950;DHT22;9608;49.288;8.130;2022-10-22T03:02:00;14.90;99.90
18950;DHT22;9608;49.288;8.130;2022-10-22T03:04:27;15.00;99.90
18950;DHT22;9608;49.288;8.130;2022-10-22T03:06:55;15.10;99.90
18950;DHT22;9608;49.288;8.130;2022-10-22T03:09:22;15.10;99.90
18950;DHT22;9608;49.288;8.130;2022-10-22T03:11:49;15.20;99.90
18950;DHT22;9608;49.288;8.130;2022-10-22T03:14:15;15.20;99.90
18950;DHT22;9608;49.288;8.130;2022-10-22T03:16:42;15.20;99.90
18950;DHT22;9608;49.288;8.130;2022-10-22T03:19:09;15.20;99.90
18950;DHT22;9608;49.288;8.130;2022-10-22T03:21:38;15.10;99.90
18950;DHT22;9608;49.288;8.130;2022-10-22T03:24:11;15.10;99.90
18950;DHT22;9608;49.288;8.130;2022-10-22T03:26:40;15.10;99.90
18950;DHT22;9608;49.288;8.130;2022-10-22T03:29:08;15.10;99.90
18950;DHT22;9608;49.288;8.130;2022-10-22T03:31:35;15.10;99.90
18950;DHT22;9608;49.288;8.130;2022-10-22T03:34:02;15.20;99.90
18950;DHT22;9608;49.288;8.130;2022-10-22T03:36:29;15.20;99.90
18950;DHT22;9608;49.288;8.130;2022-10-22T03:38:56;15.10;99.90
18950;DHT22;9608;49.288;8.130;2022-10-22T03:41:24;15.10;99.90
18950;DHT22;9608;49.288;8.130;2022-10-22T03:43:51;15.10;99.90
18950;DHT22;9608;49.288;8.130;2022-10-22T03:46:18;15.00;99.90
18950;DHT22;9608;49.288;8.130;2022-10-22T03:48:45;14.90;99.90
18950;DHT22;9608;49.288;8.130;2022-10-22T03:51:12;14.80;99.90
18950;DHT22;9608;49.288;8.130;2022-10-22T03:53:39;14.70;99.90
18950;DHT22;9608;49.288;8.130;2022-10-22T03:56:07;14.60;99.90
18950;DHT22;9608;49.288;8.130;2022-10-22T03:58:36;14.50;99.90
18950;DHT22;9608;49.288;8.130;2022-10-22T04:01:04;14.40;99.90
18950;DHT22;9608;49.288;8.130;2022-10-22T04:03:30;14.20;99.90
18950;DHT22;9608;49.288;8.130;2022-10-22T04:06:00;14.10;99.90
18950;DHT22;9608;49.288;8.130;2022-10-22T04:08:27;14.00;99.90
18950;DHT22;9608;49.288;8.130;2022-10-22T04:10:54;14.00;99.90
18950;DHT22;9608;49.288;8.130;2022-10-22T04:13:20;13.90;99.90
18950;DHT22;9608;49.288;8.130;2022-10-22T04:15:49;13.80;99.90
18950;DHT22;9608;49.288;8.130;2022-10-22T04:18:16;13.80;99.90
18950;DHT22;9608;49.288;8.130;2022-10-22T04:20:43;13.80;99.90
18950;DHT22;9608;49.288;8.130;2022-10-22T04:23:10;13.70;99.90
18950;DHT22;9608;49.288;8.130;2022-10-22T04:25:36;13.70;99.90
18950;DHT22;9608;49.288;8.130;2022-10-22T04:28:05;13.70;99.90
18950;DHT22;9608;49.288;8.130;2022-10-22T04:30:32;13.60;99.90
18950;DHT22;9608;49.288;8.130;2022-10-22T04:33:00;13.60;99.90
18950;DHT22;9608;49.288;8.130;2022-10-22T04:35:27;13.50;99.90
18950;DHT22;9608;49.288;8.130;2022-10-22T04:37:54;13.40;99.90
18950;DHT22;9608;49.288;8.130;2022-10-22T04:40:21;13.50;99.90
18950;DHT22;9608;49.288;8.130;2022-10-22T04:42:47;13.40;99.90
18950;DHT22;9608;49.288;8.130;2022-10-22T04:45:14;13.40;99.90
18950;DHT22;9608;49.288;8.130;2022-10-22T04:47:41;13.40;99.90
18950;DHT22;9608;49.288;8.130;2022-10-22T04:50:09;13.30;99.90
18950;DHT22;9608;49.288;8.130;2022-10-22T04:52:36;13.30;99.90
18950;DHT22;9608;49.288;8.130;2022-10-22T04:55:03;13.30;99.90
18950;DHT22;9608;49.288;8.130;2022-10-22T04:57:30;13.20;99.90
18950;DHT22;9608;49.288;8.130;2022-10-22T04:59:57;13.20;99.90
18950;DHT22;9608;49.288;8.130;2022-10-22T05:02:24;13.20;99.90
18950;DHT22;9608;49.288;8.130;2022-10-22T05:04:50;13.20;99.90
18950;DHT22;9608;49.288;8.130;2022-10-22T05:07:18;13.20;99.90
18950;DHT22;9608;49.288;8.130;2022-10-22T05:09:45;13.30;99.90
18950;DHT22;9608;49.288;8.130;2022-10-22T05:12:12;13.40;99.90
18950;DHT22;9608;49.288;8.130;2022-10-22T05:14:38;13.60;99.90
18950;DHT22;9608;49.288;8.130;2022-10-22T05:17:05;13.80;99.90
18950;DHT22;9608;49.288;8.130;2022-10-22T05:19:32;14.00;99.90
18950;DHT22;9608;49.288;8.130;2022-10-22T05:22:00;14.00;99.90
18950;DHT22;9608;49.288;8.130;2022-10-22T05:24:31;14.10;99.90
18950;DHT22;9608;49.288;8.130;2022-10-22T05:26:59;14.10;99.90
18950;DHT22;9608;49.288;8.130;2022-10-22T05:29:26;14.20;99.90
18950;DHT22;9608;49.288;8.130;2022-10-22T05:31:53;14.20;99.90
18950;DHT22;9608;49.288;8.130;2022-10-22T05:34:20;14.20;99.90
18950;DHT22;9608;49.288;8.130;2022-10-22T05:36:47;14.20;99.90
18950;DHT22;9608;49.288;8.130;2022-10-22T05:39:13;14.20;99.90
18950;DHT22;9608;49.288;8.130;2022-10-22T05:41:41;14.20;99.90
18950;DHT22;9608;49.288;8.130;2022-10-22T05:44:11;14.30;99.90
18950;DHT22;9608;49.288;8.130;2022-10-22T05:46:38;14.40;99.90
18950;DHT22;9608;49.288;8.130;2022-10-22T05:49:05;14.30;99.90
18950;DHT22;9608;49.288;8.130;2022-10-22T05:51:34;14.10;99.90
18950;DHT22;9608;49.288;8.130;2022-10-22T05:54:04;14.00;99.90
18950;DHT22;9608;49.288;8.130;2022-10-22T05:56:33;13.90;99.90
18950;DHT22;9608;49.288;8.130;2022-10-22T05:59:01;13.60;99.90
18950;DHT22;9608;49.288;8.130;2022-10-22T06:01:30;13.50;99.90
18950;DHT22;9608;49.288;8.130;2022-10-22T06:03:58;13.30;99.90
18950;DHT22;9608;49.288;8.130;2022-10-22T06:06:27;13.20;99.90
18950;DHT22;9608;49.288;8.130;2022-10-22T06:08:55;13.10;99.90
18950;DHT22;9608;49.288;8.130;2022-10-22T06:11:23;12.90;99.90
18950;DHT22;9608;49.288;8.130;2022-10-22T06:13:50;12.80;99.90
18950;DHT22;9608;49.288;8.130;2022-10-22T06:16:18;12.80;99.90
18950;DHT22;9608;49.288;8.130;2022-10-22T06:18:45;12.70;99.90
18950;DHT22;9608;49.288;8.130;2022-10-22T06:21:13;12.70;99.90
18950;DHT22;9608;49.288;8.130;2022-10-22T06:23:41;12.80;99.90
18950;DHT22;9608;49.288;8.130;2022-10-22T06:26:08;12.80;99.90
18950;DHT22;9608;49.288;8.130;2022-10-22T06:28:36;12.90;99.90
18950;DHT22;9608;49.288;8.130;2022-10-22T06:31:03;12.90;99.90
18950;DHT22;9608;49.288;8.130;2022-10-22T06:33:33;13.10;99.90
18950;DHT22;9608;49.288;8.130;2022-10-22T06:36:07;13.10;99.90
18950;DHT22;9608;49.288;8.130;2022-10-22T06:38:34;13.20;99.90
18950;DHT22;9608;49.288;8.130;2022-10-22T06:41:02;13.10;99.90
18950;DHT22;9608;49.288;8.130;2022-10-22T06:43:29;13.30;99.90
18950;DHT22;9608;49.288;8.130;2022-10-22T06:45:58;13.30;99.90
18950;DHT22;9608;49.288;8.130;2022-10-22T06:48:25;13.30;99.90
18950;DHT22;9608;49.288;8.130;2022-10-22T06:50:53;13.30;99.90
18950;DHT22;9608;49.288;8.130;2022-10-22T06:53:20;13.50;99.90
18950;DHT22;9608;49.288;8.130;2022-10-22T06:55:47;13.60;99.90
18950;DHT22;9608;49.288;8.130;2022-10-22T06:58:13;13.70;99.90
18950;DHT22;9608;49.288;8.130;2022-10-22T07:00:40;13.80;99.90
18950;DHT22;9608;49.288;8.130;2022-10-22T07:03:08;13.90;99.90
18950;DHT22;9608;49.288;8.130;2022-10-22T07:05:35;13.90;99.90
18950;DHT22;9608;49.288;8.130;2022-10-22T07:08:04;14.00;99.90
18950;DHT22;9608;49.288;8.130;2022-10-22T07:10:31;14.00;99.90
18950;DHT22;9608;49.288;8.130;2022-10-22T07:12:58;14.10;99.90
18950;DHT22;9608;49.288;8.130;2022-10-22T07:15:25;14.20;99.90
18950;DHT22;9608;49.288;8.130;2022-10-22T07:17:51;14.20;99.90
18950;DHT22;9608;49.288;8.130;2022-10-22T07:20:18;14.30;99.90
18950;DHT22;9608;49.288;8.130;2022-10-22T07:22:46;14.30;99.90
18950;DHT22;9608;49.288;8.130;2022-10-22T07:25:14;14.30;99.90
18950;DHT22;9608;49.288;8.130;2022-10-22T07:27:40;14.30;99.90
18950;DHT22;9608;49.288;8.130;2022-10-22T07:30:08;14.30;99.90
18950;DHT22;9608;49.288;8.130;2022-10-22T07:32:35;14.30;99.90
18950;DHT22;9608;49.288;8.130;2022-10-22T07:35:02;14.30;99.90
18950;DHT22;9608;49.288;8.130;2022-10-22T07:37:29;14.40;99.90
18950;DHT22;9608;49.288;8.130;2022-10-22T07:39:55;14.50;99.90
18950;DHT22;9608;49.288;8.130;2022-10-22T07:42:23;14.40;99.90
18950;DHT22;9608;49.288;8.130;2022-10-22T07:44:50;14.50;99.90
18950;DHT22;9608;49.288;8.130;2022-10-22T07:47:17;14.50;99.90
18950;DHT22;9608;49.288;8.130;2022-10-22T07:49:43;14.50;99.90
18950;DHT22;9608;49.288;8.130;2022-10-22T07:52:10;14.50;99.90
18950;DHT22;9608;49.288;8.130;2022-10-22T07:54:37;14.50;99.90
18950;DHT22;9608;49.288;8.130;2022-10-22T07:57:03;14.50;99.90
18950;DHT22;9608;49.288;8.130;2022-10-22T07:59:31;14.50;99.90
18950;DHT22;9608;49.288;8.130;2022-10-22T08:01:58;14.50;99.90
18950;DHT22;9608;49.288;8.130;2022-10-22T08:04:25;14.60;99.90
18950;DHT22;9608;49.288;8.130;2022-10-22T08:06:51;14.70;99.90
18950;DHT22;9608;49.288;8.130;2022-10-22T08:09:18;14.80;99.90
18950;DHT22;9608;49.288;8.130;2022-10-22T08:11:45;14.90;99.90
18950;DHT22;9608;49.288;8.130;2022-10-22T08:14:12;14.90;99.90
18950;DHT22;9608;49.288;8.130;2022-10-22T08:16:40;15.20;99.90
18950;DHT22;9608;49.288;8.130;2022-10-22T08:19:06;15.40;99.90
18950;DHT22;9608;49.288;8.130;2022-10-22T08:21:33;15.60;99.90
18950;DHT22;9608;49.288;8.130;2022-10-22T08:24:00;16.00;99.90
18950;DHT22;9608;49.288;8.130;2022-10-22T08:26:26;16.30;99.90
18950;DHT22;9608;49.288;8.130;2022-10-22T08:28:53;16.60;99.90
18950;DHT22;9608;49.288;8.130;2022-10-22T08:31:20;16.90;99.90
18950;DHT22;9608;49.288;8.130;2022-10-22T08:33:48;17.10;99.90
18950;DHT22;9608;49.288;8.130;2022-10-22T08:36:14;17.20;99.90
18950;DHT22;9608;49.288;8.130;2022-10-22T08:38:41;17.40;99.90
18950;DHT22;9608;49.288;8.130;2022-10-22T08:41:12;17.60;99.90
18950;DHT22;9608;49.288;8.130;2022-10-22T08:46:59;17.70;99.90
18950;DHT22;9608;49.288;8.130;2022-10-22T08:49:33;17.60;99.90
18950;DHT22;9608;49.288;8.130;2022-10-22T08:52:01;17.50;99.90
18950;DHT22;9608;49.288;8.130;2022-10-22T08:54:35;17.40;99.90
18950;DHT22;9608;49.288;8.130;2022-10-22T08:57:21;17.40;99.90
18950;DHT22;9608;49.288;8.130;2022-10-22T08:59:53;17.50;99.90
18950;DHT22;9608;49.288;8.130;2022-10-22T09:02:32;17.50;99.90
18950;DHT22;9608;49.288;8.130;2022-10-22T09:05:12;17.60;99.90
18950;DHT22;9608;49.288;8.130;2022-10-22T09:07:42;17.60;99.90
18950;DHT22;9608;49.288;8.130;2022-10-22T09:10:13;17.60;99.90
18950;DHT22;9608;49.288;8.130;2022-10-22T09:12:39;17.70;99.90
18950;DHT22;9608;49.288;8.130;2022-10-22T09:15:12;17.80;99.90
18950;DHT22;9608;49.288;8.130;2022-10-22T09:17:48;18.00;99.90
18950;DHT22;9608;49.288;8.130;2022-10-22T09:20:24;18.10;99.90
18950;DHT22;9608;49.288;8.130;2022-10-22T09:23:00;18.20;99.90
18950;DHT22;9608;49.288;8.130;2022-10-22T09:25:31;18.20;99.90
18950;DHT22;9608;49.288;8.130;2022-10-22T09:28:00;18.30;99.90
18950;DHT22;9608;49.288;8.130;2022-10-22T09:30:29;18.20;99.90
18950;DHT22;9608;49.288;8.130;2022-10-22T09:33:00;18.30;99.90
18950;DHT22;9608;49.288;8.130;2022-10-22T09:35:32;18.30;99.90
18950;DHT22;9608;49.288;8.130;2022-10-22T09:38:05;18.40;99.90
18950;DHT22;9608;49.288;8.130;2022-10-22T09:40:41;18.60;99.90
18950;DHT22;9608;49.288;8.130;2022-10-22T09:43:08;18.80;99.90
18950;DHT22;9608;49.288;8.130;2022-10-22T09:45:36;18.90;99.90
18950;DHT22;9608;49.288;8.130;2022-10-22T09:48:10;19.00;99.90
18950;DHT22;9608;49.288;8.130;2022-10-22T09:50:42;18.80;99.90
18950;DHT22;9608;49.288;8.130;2022-10-22T09:53:16;18.70;99.90
18950;DHT22;9608;49.288;8.130;2022-10-22T09:55:49;18.90;99.90
18950;DHT22;9608;49.288;8.130;2022-10-22T09:58:17;19.00;99.90
18950;DHT22;9608;49.288;8.130;2022-10-22T10:00:45;18.90;99.90
18950;DHT22;9608;49.288;8.130;2022-10-22T10:03:16;19.10;99.90
18950;DHT22;9608;49.288;8.130;2022-10-22T10:05:46;19.10;99.90
18950;DHT22;9608;49.288;8.130;2022-10-22T10:08:16;19.10;99.90
18950;DHT22;9608;49.288;8.130;2022-10-22T10:10:47;19.30;99.90
18950;DHT22;9608;49.288;8.130;2022-10-22T10:13:27;19.40;99.90
18950;DHT22;9608;49.288;8.130;2022-10-22T10:16:02;19.30;99.90
18950;DHT22;9608;49.288;8.130;2022-10-22T10:18:39;19.50;99.90
18950;DHT22;9608;49.288;8.130;2022-10-22T10:21:20;19.60;99.90
18950;DHT22;9608;49.288;8.130;2022-10-22T10:23:55;19.80;99.90
18950;DHT22;9608;49.288;8.130;2022-10-22T10:26:26;19.60;99.90
18950;DHT22;9608;49.288;8.130;2022-10-22T10:29:06;19.40;99.90
18950;DHT22;9608;49.288;8.130;2022-10-22T10:31:44;19.60;99.90
18950;DHT22;9608;49.288;8.130;2022-10-22T10:34:21;19.50;99.90
18950;DHT22;9608;49.288;8.130;2022-10-22T10:36:59;19.80;99.90
18950;DHT22;9608;49.288;8.130;2022-10-22T10:39:30;20.00;99.90
18950;DHT22;9608;49.288;8.130;2022-10-22T10:42:03;20.30;99.90
18950;DHT22;9608;49.288;8.130;2022-10-22T10:44:54;20.40;99.90
18950;DHT22;9608;49.288;8.130;2022-10-22T10:47:52;20.50;99.90
18950;DHT22;9608;49.288;8.130;2022-10-22T10:50:28;20.50;99.90
18950;DHT22;9608;49.288;8.130;2022-10-22T10:53:03;20.40;99.90
18950;DHT22;9608;49.288;8.130;2022-10-22T10:55:36;20.50;99.90
18950;DHT22;9608;49.288;8.130;2022-10-22T10:58:12;20.70;99.90
18950;DHT22;9608;49.288;8.130;2022-10-22T11:00:49;20.70;99.90
18950;DHT22;9608;49.288;8.130;2022-10-22T11:03:39;20.50;99.90
18950;DHT22;9608;49.288;8.130;2022-10-22T11:06:14;20.70;99.90
18950;DHT22;9608;49.288;8.130;2022-10-22T11:08:46;20.80;99.90
18950;DHT22;9608;49.288;8.130;2022-10-22T11:11:21;20.90;99.90
18950;DHT22;9608;49.288;8.130;2022-10-22T11:13:52;20.60;99.90
18950;DHT22;9608;49.288;8.130;2022-10-22T11:16:25;20.60;99.90
18950;DHT22;9608;49.288;8.130;2022-10-22T11:18:56;20.70;99.90
18950;DHT22;9608;49.288;8.130;2022-10-22T11:21:33;20.80;99.90
18950;DHT22;9608;49.288;8.130;2022-10-22T11:24:11;20.70;99.90
18950;DHT22;9608;49.288;8.130;2022-10-22T11:26:44;20.90;99.90
18950;DHT22;9608;49.288;8.130;2022-10-22T11:29:17;21.00;99.90
18950;DHT22;9608;49.288;8.130;2022-10-22T11:31:45;21.20;99.90
18950;DHT22;9608;49.288;8.130;2022-10-22T11:34:17;21.30;99.90
18950;DHT22;9608;49.288;8.130;2022-10-22T11:36:44;21.20;99.90
18950;DHT22;9608;49.288;8.130;2022-10-22T11:39:29;21.30;99.90
18950;DHT22;9608;49.288;8.130;2022-10-22T11:41:58;21.40;99.90
18950;DHT22;9608;49.288;8.130;2022-10-22T11:44:24;21.70;99.90
18950;DHT22;9608;49.288;8.130;2022-10-22T11:46:56;21.90;99.90
18950;DHT22;9608;49.288;8.130;2022-10-22T11:49:25;22.20;99.90
18950;DHT22;9608;49.288;8.130;2022-10-22T11:52:20;22.30;99.90
18950;DHT22;9608;49.288;8.130;2022-10-22T11:54:54;22.00;99.90
18950;DHT22;9608;49.288;8.130;2022-10-22T11:57:25;21.60;99.90
18950;DHT22;9608;49.288;8.130;2022-10-22T11:59:56;21.30;99.90
18950;DHT22;9608;49.288;8.130;2022-10-22T12:02:37;21.30;99.90
18950;DHT22;9608;49.288;8.130;2022-10-22T12:05:29;21.30;99.90
18950;DHT22;9608;49.288;8.130;2022-10-22T12:08:01;21.30;99.90
18950;DHT22;9608;49.288;8.130;2022-10-22T12:13:32;21.70;99.90
18950;DHT22;9608;49.288;8.130;2022-10-22T12:16:02;21.80;99.90
18950;DHT22;9608;49.288;8.130;2022-10-22T12:18:34;21.80;99.90
18950;DHT22;9608;49.288;8.130;2022-10-22T12:21:04;21.60;99.90
18950;DHT22;9608;49.288;8.130;2022-10-22T12:23:33;21.40;99.90
18950;DHT22;9608;49.288;8.130;2022-10-22T12:26:03;21.20;99.90
18950;DHT22;9608;49.288;8.130;2022-10-22T12:28:37;21.20;99.90
18950;DHT22;9608;49.288;8.130;2022-10-22T12:31:05;21.10;99.90
18950;DHT22;9608;49.288;8.130;2022-10-22T12:33:31;21.10;99.90
18950;DHT22;9608;49.288;8.130;2022-10-22T12:35:58;21.10;99.90
18950;DHT22;9608;49.288;8.130;2022-10-22T12:38:28;21.00;99.90
18950;DHT22;9608;49.288;8.130;2022-10-22T12:40:56;21.00;99.90
18950;DHT22;9608;49.288;8.130;2022-10-22T12:43:26;21.00;99.90
18950;DHT22;9608;49.288;8.130;2022-10-22T12:45:54;20.90;99.90
18950;DHT22;9608;49.288;8.130;2022-10-22T12:48:24;20.80;99.90
18950;DHT22;9608;49.288;8.130;2022-10-22T12:50:54;20.60;99.90
18950;DHT22;9608;49.288;8.130;2022-10-22T12:53:26;20.60;99.90
18950;DHT22;9608;49.288;8.130;2022-10-22T12:55:54;20.80;99.90
18950;DHT22;9608;49.288;8.130;2022-10-22T12:58:26;20.80;99.90
18950;DHT22;9608;49.288;8.130;2022-10-22T13:00:54;20.80;99.90
18950;DHT22;9608;49.288;8.130;2022-10-22T13:03:28;21.10;99.90
18950;DHT22;9608;49.288;8.130;2022-10-22T13:05:54;21.40;99.90
18950;DHT22;9608;49.288;8.130;2022-10-22T13:08:22;21.60;99.90
18950;DHT22;9608;49.288;8.130;2022-10-22T13:10:53;21.80;99.90
18950;DHT22;9608;49.288;8.130;2022-10-22T13:13:32;21.90;99.90
18950;DHT22;9608;49.288;8.130;2022-10-22T13:16:16;22.20;99.90
18950;DHT22;9608;49.288;8.130;2022-10-22T13:18:43;22.40;99.90
18950;DHT22;9608;49.288;8.130;2022-10-22T13:21:22;22.40;99.90
18950;DHT22;9608;49.288;8.130;2022-10-22T13:23:53;22.40;99.90
18950;DHT22;9608;49.288;8.130;2022-10-22T13:26:20;22.60;99.90
18950;DHT22;9608;49.288;8.130;2022-10-22T13:28:52;22.60;99.90
18950;DHT22;9608;49.288;8.130;2022-10-22T13:31:22;22.50;99.90
18950;DHT22;9608;49.288;8.130;2022-10-22T13:33:52;22.20;99.90
18950;DHT22;9608;49.288;8.130;2022-10-22T13:36:20;22.20;99.90
18950;DHT22;9608;49.288;8.130;2022-10-22T13:38:47;22.00;99.90
18950;DHT22;9608;49.288;8.130;2022-10-22T13:41:22;21.90;99.90
18950;DHT22;9608;49.288;8.130;2022-10-22T13:43:51;22.00;99.90
18950;DHT22;9608;49.288;8.130;2022-10-22T13:46:18;22.20;99.90
18950;DHT22;9608;49.288;8.130;2022-10-22T13:48:46;22.40;99.90
18950;DHT22;9608;49.288;8.130;2022-10-22T13:51:15;22.50;99.90
18950;DHT22;9608;49.288;8.130;2022-10-22T13:53:42;22.60;99.90
18950;DHT22;9608;49.288;8.130;2022-10-22T13:56:12;22.80;99.90
18950;DHT22;9608;49.288;8.130;2022-10-22T13:58:40;23.00;99.90
18950;DHT22;9608;49.288;8.130;2022-10-22T14:01:19;23.10;99.90
18950;DHT22;9608;49.288;8.130;2022-10-22T14:03:47;23.10;99.90
18950;DHT22;9608;49.288;8.130;2022-10-22T14:06:15;23.00;99.90
18950;DHT22;9608;49.288;8.130;2022-10-22T14:08:45;23.00;99.90
18950;DHT22;9608;49.288;8.130;2022-10-22T14:11:12;22.70;99.90
18950;DHT22;9608;49.288;8.130;2022-10-22T14:13:39;22.10;99.90
18950;DHT22;9608;49.288;8.130;2022-10-22T14:16:10;21.80;99.90
18950;DHT22;9608;49.288;8.130;2022-10-22T14:18:41;21.70;99.90
18950;DHT22;9608;49.288;8.130;2022-10-22T14:21:09;21.70;99.90
18950;DHT22;9608;49.288;8.130;2022-10-22T14:23:39;21.60;99.90
18950;DHT22;9608;49.288;8.130;2022-10-22T14:26:06;21.50;99.90
18950;DHT22;9608;49.288;8.130;2022-10-22T14:28:34;21.40;99.90
18950;DHT22;9608;49.288;8.130;2022-10-22T14:31:00;21.10;99.90
18950;DHT22;9608;49.288;8.130;2022-10-22T14:33:29;20.80;99.90
18950;DHT22;9608;49.288;8.130;2022-10-22T14:35:58;20.70;99.90
18950;DHT22;9608;49.288;8.130;2022-10-22T14:38:24;20.60;99.90
18950;DHT22;9608;49.288;8.130;2022-10-22T14:40:51;20.70;99.90
18950;DHT22;9608;49.288;8.130;2022-10-22T14:43:20;20.70;99.90
18950;DHT22;9608;49.288;8.130;2022-10-22T14:45:47;20.70;99.90
18950;DHT22;9608;49.288;8.130;2022-10-22T14:48:14;20.60;99.90
18950;DHT22;9608;49.288;8.130;2022-10-22T14:50:41;20.50;99.90
18950;DHT22;9608;49.288;8.130;2022-10-22T14:53:11;20.40;99.90
18950;DHT22;9608;49.288;8.130;2022-10-22T14:55:38;20.20;99.90
18950;DHT22;9608;49.288;8.130;2022-10-22T14:58:05;20.20;99.90
18950;DHT22;9608;49.288;8.130;2022-10-22T15:00:32;20.20;99.90
18950;DHT22;9608;49.288;8.130;2022-10-22T15:03:01;20.00;99.90
18950;DHT22;9608;49.288;8.130;2022-10-22T15:05:28;20.00;99.90
18950;DHT22;9608;49.288;8.130;2022-10-22T15:07:54;20.00;99.90
18950;DHT22;9608;49.288;8.130;2022-10-22T15:10:24;20.00;99.90
18950;DHT22;9608;49.288;8.130;2022-10-22T15:12:51;20.00;99.90
18950;DHT22;9608;49.288;8.130;2022-10-22T15:15:18;19.90;99.90
18950;DHT22;9608;49.288;8.130;2022-10-22T15:17:45;19.90;99.90
18950;DHT22;9608;49.288;8.130;2022-10-22T15:20:12;19.90;99.90
18950;DHT22;9608;49.288;8.130;2022-10-22T15:22:38;19.90;99.90
18950;DHT22;9608;49.288;8.130;2022-10-22T15:25:06;19.90;99.90
18950;DHT22;9608;49.288;8.130;2022-10-22T15:27:35;19.90;99.90
18950;DHT22;9608;49.288;8.130;2022-10-22T15:30:02;19.80;99.90
18950;DHT22;9608;49.288;8.130;2022-10-22T15:32:29;19.70;99.90
18950;DHT22;9608;49.288;8.130;2022-10-22T15:34:58;19.60;99.90
18950;DHT22;9608;49.288;8.130;2022-10-22T15:37:25;19.40;99.90
18950;DHT22;9608;49.288;8.130;2022-10-22T15:39:51;19.30;99.90
18950;DHT22;9608;49.288;8.130;2022-10-22T15:42:18;19.20;99.90
18950;DHT22;9608;49.288;8.130;2022-10-22T15:44:46;19.20;99.90
18950;DHT22;9608;49.288;8.130;2022-10-22T15:47:13;19.20;99.90
18950;DHT22;9608;49.288;8.130;2022-10-22T15:49:39;18.90;99.90
18950;DHT22;9608;49.288;8.130;2022-10-22T15:52:07;18.70;99.90
18950;DHT22;9608;49.288;8.130;2022-10-22T15:54:34;18.70;99.90
18950;DHT22;9608;49.288;8.130;2022-10-22T15:57:01;18.70;99.90
18950;DHT22;9608;49.288;8.130;2022-10-22T15:59:33;18.30;99.90
18950;DHT22;9608;49.288;8.130;2022-10-22T16:02:01;18.10;99.90
18950;DHT22;9608;49.288;8.130;2022-10-22T16:04:28;18.00;99.90
18950;DHT22;9608;49.288;8.130;2022-10-22T16:06:56;17.80;99.90
18950;DHT22;9608;49.288;8.130;2022-10-22T16:09:25;17.60;99.90